createdAt,value
2022-09-20T00:02:06.679Z,9.55
2022-09-20T00:07:08.509Z,9.56
2022-09-20T00:12:10.176Z,9.50
2022-09-20T00:17:11.792Z,9.47
2022-09-20T00:22:13.416Z,9.40
2022-09-20T00:27:15.027Z,9.29
2022-09-20T00:32:16.725Z,9.24
2022-09-20T00:37:18.363Z,9.22
2022-09-20T00:42:19.969Z,9.18
2022-09-20T00:47:39.998Z,9.12
2022-09-20T00:52:45.468Z,9.13
2022-09-20T00:57:48.181Z,9.09
2022-09-20T01:02:56.020Z,8.97
2022-09-20T01:07:57.999Z,8.87
2022-09-20T01:12:59.623Z,8.77
2022-09-20T01:18:02.871Z,8.66
2022-09-20T01:23:40.129Z,8.56
2022-09-20T01:28:45.368Z,8.51
2022-09-20T01:34:00.697Z,8.55
2022-09-20T01:39:44.194Z,8.49
2022-09-20T01:45:10.795Z,8.52
2022-09-20T01:50:39.735Z,8.51
2022-09-20T01:55:41.307Z,8.47
2022-09-20T02:01:04.187Z,8.47
2022-09-20T02:06:23.639Z,8.43
2022-09-20T02:11:54.386Z,8.36
2022-09-20T02:17:00.643Z,8.32
2022-09-20T02:22:20.139Z,8.17
2022-09-20T02:27:41.624Z,7.97
2022-09-20T02:33:01.208Z,7.93
2022-09-20T02:38:21.248Z,7.74
2022-09-20T02:43:59.996Z,7.79
2022-09-20T02:49:13.031Z,8.08
2022-09-20T02:54:24.686Z,8.31
2022-09-20T02:59:45.565Z,8.33
2022-09-20T03:05:05.344Z,8.29
2022-09-20T03:10:25.216Z,8.35
2022-09-20T03:15:37.303Z,8.31
2022-09-20T03:21:30.334Z,8.19
2022-09-20T03:26:55.160Z,8.25
2022-09-20T03:32:19.951Z,8.48
2022-09-20T03:37:21.499Z,8.80
2022-09-20T03:42:30.424Z,8.96
2022-09-20T03:47:41.337Z,9.01
2022-09-20T03:52:58.053Z,8.97
2022-09-20T03:58:06.866Z,9.40
2022-09-20T04:03:42.923Z,9.32
2022-09-20T04:09:25.032Z,9.23
2022-09-20T04:14:35.487Z,8.80
2022-09-20T04:20:14.034Z,8.83
2022-09-20T04:25:23.785Z,8.65
2022-09-20T04:30:30.338Z,8.66
2022-09-20T04:36:12.199Z,8.82
2022-09-20T04:41:39.409Z,8.72
2022-09-20T04:46:43.626Z,8.57
2022-09-20T04:52:19.652Z,8.35
2022-09-20T04:57:49.054Z,8.11
2022-09-20T05:03:05.993Z,8.10
2022-09-20T05:08:26.439Z,8.10
2022-09-20T05:13:58.958Z,8.22
2022-09-20T05:19:13.611Z,8.32
2022-09-20T05:24:24.511Z,8.40
2022-09-20T05:29:36.994Z,8.26
2022-09-20T05:35:04.852Z,8.47
2022-09-20T05:40:31.108Z,8.53
2022-09-20T05:45:57.510Z,8.58
2022-09-20T05:51:15.827Z,8.61
2022-09-20T05:56:29.461Z,8.71
2022-09-20T06:01:42.076Z,8.85
2022-09-20T06:07:02.100Z,8.91
2022-09-20T06:12:35.458Z,8.90
2022-09-20T06:17:59.756Z,8.98
2022-09-20T06:23:05.526Z,9.17
2022-09-20T06:28:15.906Z,9.29
2022-09-20T06:33:20.671Z,9.39
2022-09-20T06:38:43.719Z,9.69
2022-09-20T06:43:45.668Z,9.99
2022-09-20T06:48:47.371Z,10.41
2022-09-20T06:53:49.647Z,11.07
2022-09-20T06:58:52.795Z,11.31
2022-09-20T07:03:54.408Z,11.36
2022-09-20T07:08:56.091Z,11.36
2022-09-20T07:14:00.493Z,11.36
2022-09-20T07:19:03.222Z,11.47
2022-09-20T07:24:05.041Z,11.54
2022-09-20T07:29:07.896Z,11.50
2022-09-20T07:34:11.141Z,11.49
2022-09-20T07:39:12.929Z,11.90
2022-09-20T07:44:28.033Z,12.04
2022-09-20T07:49:30.404Z,12.56
2022-09-20T07:54:32.069Z,13.34
2022-09-20T07:59:33.752Z,14.12
2022-09-20T08:04:35.413Z,15.01
2022-09-20T08:09:37.059Z,15.04
2022-09-20T08:14:38.701Z,14.90
2022-09-20T08:19:40.497Z,15.51
2022-09-20T08:24:42.569Z,16.00
2022-09-20T08:29:44.194Z,16.55
2022-09-20T08:34:49.258Z,16.78
2022-09-20T08:39:58.948Z,16.27
2022-09-20T08:45:03.644Z,15.62
2022-09-20T08:50:10.127Z,14.84
2022-09-20T08:55:23.105Z,14.12
2022-09-20T09:00:33.804Z,13.62
2022-09-20T09:05:43.141Z,13.56
2022-09-20T09:10:48.021Z,13.88
2022-09-20T09:15:59.018Z,14.26
2022-09-20T09:21:04.300Z,14.51
2022-09-20T09:26:06.066Z,14.62
2022-09-20T09:31:23.184Z,14.48
2022-09-20T09:36:26.207Z,14.08
2022-09-20T09:41:35.410Z,13.58
2022-09-20T09:46:40.250Z,13.43
2022-09-20T09:52:03.183Z,13.41
2022-09-20T09:57:20.831Z,13.56
2022-09-20T10:02:23.553Z,13.61
2022-09-20T10:07:46.977Z,14.23
2022-09-20T10:13:10.937Z,14.49
2022-09-20T10:18:44.109Z,14.44
2022-09-20T10:24:23.438Z,14.66
2022-09-20T10:29:26.239Z,14.98
2022-09-20T10:34:52.340Z,15.38
2022-09-20T10:40:20.514Z,15.64
2022-09-20T10:46:08.424Z,15.80
2022-09-20T10:51:06.585Z,15.85
2022-09-20T10:56:56.323Z,15.76
2022-09-20T11:01:58.141Z,15.35
2022-09-20T11:07:21.936Z,15.34
2022-09-20T11:12:50.116Z,15.49
2022-09-20T11:18:09.738Z,15.55
2022-09-20T11:23:16.691Z,15.54
2022-09-20T11:28:36.216Z,15.33
2022-09-20T11:33:52.481Z,15.25
2022-09-20T11:39:48.481Z,14.99
2022-09-20T11:44:51.147Z,15.15
2022-09-20T11:49:52.715Z,15.12
2022-09-20T11:55:08.463Z,15.24
2022-09-20T12:00:10.514Z,15.48
2022-09-20T12:05:38.169Z,15.54
2022-09-20T12:10:40.631Z,15.76
2022-09-20T12:15:42.700Z,15.81
2022-09-20T12:20:45.104Z,15.63
2022-09-20T12:26:18.901Z,15.72
2022-09-20T12:31:29.154Z,15.95
2022-09-20T12:36:32.816Z,15.76
2022-09-20T12:41:46.597Z,15.92
2022-09-20T12:47:12.586Z,15.72
2022-09-20T12:52:50.988Z,15.35
2022-09-20T12:58:02.299Z,15.21
2022-09-20T13:03:21.733Z,14.89
2022-09-20T13:08:30.142Z,14.76
2022-09-20T13:13:35.905Z,14.86
2022-09-20T13:18:37.934Z,14.87
2022-09-20T13:23:49.444Z,14.87
2022-09-20T13:28:56.110Z,14.92
2022-09-20T13:34:21.442Z,14.80
2022-09-20T13:39:27.845Z,14.74
2022-09-20T13:44:34.468Z,15.02
2022-09-20T13:49:43.155Z,15.20
2022-09-20T13:54:44.789Z,15.61
2022-09-20T13:59:47.144Z,15.96
2022-09-20T14:04:50.549Z,16.25
2022-09-20T14:09:53.074Z,16.39
2022-09-20T14:14:55.343Z,16.25
2022-09-20T14:19:58.375Z,16.29
2022-09-20T14:25:22.087Z,16.36
2022-09-20T14:30:32.735Z,16.13
2022-09-20T14:35:34.551Z,15.92
2022-09-20T14:40:47.659Z,15.78
2022-09-20T14:45:58.772Z,15.69
2022-09-20T14:51:22.672Z,15.34
2022-09-20T14:56:34.712Z,15.33
2022-09-20T15:01:41.140Z,15.26
2022-09-20T15:06:43.065Z,15.04
2022-09-20T15:11:45.001Z,14.89
2022-09-20T15:16:46.781Z,14.71
2022-09-20T15:21:48.590Z,14.67
2022-09-20T15:26:54.353Z,14.57
2022-09-20T15:32:00.224Z,14.49
2022-09-20T15:37:02.033Z,14.29
2022-09-20T15:42:13.945Z,14.06
2022-09-20T15:47:22.019Z,13.85
2022-09-20T15:52:29.107Z,13.76
2022-09-20T15:57:35.160Z,13.57
2022-09-20T16:02:37.584Z,13.44
2022-09-20T16:07:40.346Z,13.43
2022-09-20T16:12:42.117Z,13.54
2022-09-20T16:18:02.354Z,13.63
2022-09-20T16:23:04.448Z,13.63
2022-09-20T16:28:06.129Z,13.59
2022-09-20T16:33:11.882Z,13.54
2022-09-20T16:38:14.162Z,13.50
2022-09-20T16:43:25.877Z,13.46
2022-09-20T16:48:31.349Z,13.32
2022-09-20T16:53:33.033Z,13.12
2022-09-20T16:58:36.529Z,12.94
2022-09-20T17:03:40.860Z,12.76
2022-09-20T17:08:44.928Z,12.56
2022-09-20T17:13:48.035Z,12.37
2022-09-20T17:19:40.216Z,12.22
2022-09-20T17:24:41.882Z,12.07
2022-09-20T17:29:45.551Z,12.14
2022-09-20T17:34:47.228Z,12.21
2022-09-20T17:39:50.455Z,12.25
2022-09-20T17:44:52.346Z,12.28
2022-09-20T17:49:54.991Z,12.36
2022-09-20T17:54:57.064Z,12.39
2022-09-20T17:59:59.256Z,12.44
2022-09-20T18:05:02.011Z,12.43
2022-09-20T18:10:04.989Z,12.44
2022-09-20T18:15:07.290Z,12.38
2022-09-20T18:20:09.847Z,12.43
2022-09-20T18:25:11.468Z,12.39
2022-09-20T18:30:13.170Z,12.38
2022-09-20T18:35:14.832Z,12.41
2022-09-20T18:40:16.585Z,12.45
2022-09-20T18:45:19.425Z,12.42
2022-09-20T18:50:21.528Z,12.36
2022-09-20T18:55:24.928Z,12.30
2022-09-20T19:00:27.008Z,12.17
2022-09-20T19:05:28.714Z,12.01
2022-09-20T19:10:54.454Z,11.76
2022-09-20T19:16:18.723Z,11.54
2022-09-20T19:21:20.761Z,11.30
2022-09-20T19:26:25.934Z,11.20
2022-09-20T19:31:33.409Z,11.01
2022-09-20T19:36:49.272Z,10.87
2022-09-20T19:41:58.301Z,10.72
2022-09-20T19:47:06.255Z,10.66
2022-09-20T19:52:12.136Z,10.74
2022-09-20T19:57:24.068Z,10.71
2022-09-20T20:02:25.855Z,10.76
2022-09-20T20:07:45.654Z,10.80
2022-09-20T20:13:00.687Z,10.83
2022-09-20T20:18:21.653Z,10.81
2022-09-20T20:23:34.651Z,10.68
2022-09-20T20:28:37.772Z,10.70
2022-09-20T20:33:39.774Z,10.67
2022-09-20T20:45:06.027Z,10.29
2022-09-20T20:50:08.182Z,10.20
2022-09-20T20:55:10.790Z,10.03
2022-09-20T21:00:13.032Z,9.99
2022-09-20T21:05:15.509Z,9.90
2022-09-20T21:10:17.115Z,9.83
2022-09-20T21:15:18.826Z,9.68
2022-09-20T21:20:21.669Z,9.44
2022-09-20T21:25:23.294Z,9.39
2022-09-20T21:30:24.949Z,9.37
2022-09-20T21:35:26.625Z,9.32
2022-09-20T21:40:28.359Z,9.22
2022-09-20T21:45:30.101Z,9.03
2022-09-20T21:50:31.716Z,8.89
2022-09-20T21:55:33.530Z,8.96
2022-09-20T22:00:35.885Z,9.02
2022-09-20T22:05:37.573Z,9.03
2022-09-20T22:10:39.174Z,8.96
2022-09-20T22:15:40.807Z,9.01
2022-09-20T22:20:42.433Z,9.11
2022-09-20T22:25:44.081Z,9.13
2022-09-20T22:30:45.719Z,9.16
2022-09-20T22:35:47.350Z,9.05
2022-09-20T22:40:53.957Z,9.03
2022-09-20T22:46:05.139Z,9.01
2022-09-20T22:51:09.495Z,9.03
2022-09-20T22:56:15.273Z,9.01
2022-09-20T23:01:25.992Z,9.01
2022-09-20T23:06:30.970Z,8.96
2022-09-20T23:11:32.792Z,8.87
2022-09-20T23:16:36.702Z,8.56
2022-09-20T23:21:39.502Z,8.68
2022-09-20T23:26:42.392Z,8.73
2022-09-20T23:31:47.229Z,8.74
2022-09-20T23:36:49.036Z,8.74
2022-09-20T23:41:51.439Z,8.75
2022-09-20T23:46:53.219Z,8.72
2022-09-20T23:51:55.048Z,8.70
2022-09-20T23:56:56.648Z,8.69
